Metar Cercanos

 

LEPA - Palma De Mallorc, Spain
Distance from station: ONO 38km
Actualización: 22/05/2018 02:30
Few Clouds
Few Clouds
 Viento del E
Viento: E 6 km/h
Temperatura: 14°C
Rocío: 13°C
Humedad: 94%
Barómetro: 1012 hPa
Clouds: Few Clouds
Visibility: 10 km
Cloud details: Few Clouds 762 m
2018/05/22 00:30 LEPA 220030Z 09003KT 050V120 9999 FEW025 14/13 Q1012 NOSIG
LEMH - Mahon/Menorca Is, Spain
Distance from station: ENE 105km
Actualización: 22/05/2018 02:30
Despejado
Despejado
 Viento del NO
Viento: NO 6 km/h
Temperatura: 15°C
Rocío: 14°C
Humedad: 94%
Barómetro: 1011 hPa
Clouds: Despejado
Visibility: 8 km
2018/05/22 00:30 LEMH 220030Z AUTO 31003KT 280V350 8000 NCD 15/14 Q1011
 
LEIB - Ibiza/Es Codola, Spain
Distance from station: OSO 165km
Actualización: 22/05/2018 02:30
Few Clouds
Few Clouds
 Viento del varies
Viento: varies 2 km/h
Temperatura: 14°C
Rocío: 13°C
Humedad: 94%
Barómetro: 1013 hPa
Clouds: Few Clouds
Visibility: 10 km
Cloud details: Few Clouds 457 m
2018/05/22 00:30 LEIB 220030Z VRB01KT 9999 FEW015 14/13 Q1013 NOSIG
LEBL - Barcelona Airpor, Spain
Distance from station: NNO 225km
Actualización: 22/05/2018 02:30
Few Clouds
Few Clouds
 Viento del NNO
Viento: NNO 9 km/h
Temperatura: 18°C
Rocío: 12°C
Humedad: 68%
Barómetro: 1011 hPa
Clouds: Few Clouds
Visibility: 10 km
Cloud details: Few Clouds 914 m
2018/05/22 00:30 LEBL 220030Z 33005KT 9999 FEW030 18/12 Q1011 NOSIG
 
LEVC - Valencia (civ/Mi, Spain
Distance from station: NO 188km
Actualización: 22/05/2018 02:30
Despejado
Despejado
 Viento del varies
Viento: varies 4 km/h
Temperatura: 17°C
Rocío: 13°C
Humedad: 77%
Barómetro: 1012 hPa
Resumen: Despejado
Visibility: greater than 10 km
2018/05/22 00:30 LEVC 220030Z VRB02KT CAVOK 17/13 Q1012 NOSIG
LEGE - Gerona/Costa Bra, Spain
Distance from station: N 276km
Actualización: 22/05/2018 02:30
Mist, Few clouds
Mist, Few clouds
 Viento del E
Viento: E 2 km/h
Temperatura: 12°C
Rocío: 12°C
Humedad: 100%
Barómetro: 1011 hPa
Resumen: Mist
Clouds: Few Clouds
Visibility: 5 km
Cloud details: Few Clouds 1067 m
2018/05/22 00:30 LEGE 220030Z 09001KT 5000 BR FEW035 12/12 Q1011
 
LEAL - Alicante/El Alte, Spain
Distance from station: OSO 344km
Actualización: 22/05/2018 02:30
Despejado
Despejado
 Viento del varies
Viento: varies 2 km/h
Temperatura: 16°C
Rocío: 14°C
Humedad: 88%
Barómetro: 1012 hPa
Resumen: Despejado
Visibility: greater than 10 km
2018/05/22 00:30 LEAL 220030Z VRB01KT CAVOK 16/14 Q1012 NOSIG
LEAM - Almeria Airport, Spain
Distance from station: SSO 56km
Actualización: 22/05/2018 02:30
Despejado
Despejado
 Viento del varies
Viento: varies 2 km/h
Temperatura: 17°C
Rocío: 14°C
Humedad: 83%
Barómetro: 1013 hPa
Clouds: Despejado
Visibility: 8 km
2018/05/22 00:30 LEAM 220030Z AUTO VRB01KT 8000 NCD 17/14 Q1013
 
LEZG - Zaragoza (mil/Ci, Spain
Distance from station: NO 431km
Actualización: 22/05/2018 02:30
Few Clouds
Few Clouds
 Viento del varies
Viento: varies 2 km/h
Temperatura: 16°C
Rocío: 13°C
Humedad: 83%
Barómetro: 1013 hPa
Clouds: Few Clouds
Visibility: 10 km
Cloud details: Few Clouds 2591 m
2018/05/22 00:30 LEZG 220030Z VRB01KT 9999 FEW085 16/13 Q1013
LEMD - Madrid/Barajas, Spain
Distance from station: ONO 234km
Actualización: 22/05/2018 02:30
Parcialmente nuboso
Parcialmente nuboso
 Viento del varies
Viento: varies 4 km/h
Temperatura: 14°C
Rocío: 14°C
Humedad: 100%
Barómetro: 1014 hPa
Clouds: Parcialmente nuboso
Visibility: 10 km
Cloud details: Few Clouds 1676 m
Parcialmente nuboso 2286 m
2018/05/22 00:30 LEMD 220030Z VRB02KT 9999 FEW055 SCT075 14/14 Q1014 NOSIG
 
LEGR - Granada Airport, Spain
Distance from station: OSO 62km
Actualización: 22/05/2018 02:30
Despejado
Despejado
 Viento del calm
Viento: Calma
Temperatura: 11°C
Rocío: 10°C
Humedad: 94%
Barómetro: 1015 hPa
Clouds: Despejado
Visibility: 10 km
2018/05/22 00:30 LEGR 220030Z AUTO 00000KT 9999 NCD 11/10 Q1015
LEMG - Malaga (civ/Mil), Spain
Distance from station: OSO 227km
Actualización: 22/05/2018 02:30
Despejado
Despejado
 Viento del NO
Viento: NO 9 km/h
Temperatura: 15°C
Rocío: 14°C
Humedad: 94%
Barómetro: 1013 hPa
Resumen: Despejado
Visibility: greater than 10 km
2018/05/22 00:30 LEMG 220030Z 31005KT CAVOK 15/14 Q1013 NOSIG
 
LEZL - Sevilla (civ/Mil, Spain
Distance from station: S 318km
Actualización: 22/05/2018 02:30
Muy nuboso
Muy nuboso
 Viento del SO
Viento: SO 11 km/h
Temperatura: 16°C
Rocío: 13°C
Humedad: 83%
Barómetro: 1014 hPa
Clouds: Muy nuboso
Visibility: 10 km
Cloud details: Muy nuboso 518 m
2018/05/22 00:30 LEZL 220030Z AUTO 23006KT 9999 BKN017/// 16/13 Q1014
LEVT - Vitoria, Spain
Distance from station: NO 226km
Actualización: 22/05/2018 02:30
Parcialmente nuboso
Parcialmente nuboso
 Viento del NE
Viento: NE 7 km/h
Temperatura: 9°C
Sensación frio: 8°C
Rocío: 9°C
Humedad: 100%
Barómetro: 1014 hPa
Clouds: Parcialmente nuboso
Visibility: 7 km
Cloud details: Parcialmente nuboso 610 m
Parcialmente nuboso 2134 m
2018/05/22 00:30 LEVT 220030Z 05004KT 7000 SCT020 SCT070 09/09 Q1014
 
LEBB - Bilbao/Sondica, Spain
Distance from station: NNO 235km
Actualización: 22/05/2018 02:30
Despejado
Despejado
 Viento del E
Viento: E 7 km/h
Temperatura: 13°C
Rocío: 12°C
Humedad: 94%
Barómetro: 1014 hPa
Clouds: Despejado
Visibility: 10 km
2018/05/22 00:30 LEBB 220030Z AUTO 10004KT 9999 NCD 13/12 Q1014
LESO - San Sebastian/Fu, Spain
Distance from station: N 231km
Actualización: 22/05/2018 02:30
Despejado
Despejado
 Viento del varies
Viento: varies 4 km/h
Temperatura: 14°C
Rocío: 13°C
Humedad: 94%
Barómetro: 1013 hPa
Clouds: Despejado
Visibility: 10 km
2018/05/22 00:30 LESO 220030Z AUTO VRB02KT 9999 NCD 14/13 Q1013
 
LEVD - Valladolid(Mil/C, Spain
Distance from station: ONO 239km
Actualización: 21/05/2018 21:30
NOT Current
Nearby showers, Parcialmente nuboso
Nearby showers, Parcialmente nuboso
 Viento del N
Viento: N 4 km/h
Temperatura: 18°C
Rocío: 10°C
Humedad: 60%
Barómetro: 1012 hPa
Resumen: Nearby Showers
Clouds: Parcialmente nuboso
Visibility: 10 km
Cloud details: Parcialmente nuboso 1829 m
2018/05/21 19:30 LEVD 211930Z 36002KT 9999 VCSH SCT060TCU 18/10 Q1012
LESA - Salamanca (civ/M, Spain
Distance from station: ONO 349km
Actualización: 01/01/1970 01:00
NOT Current
unable to load LESA data RC=404 Not Found
unable to load LESA data RC=404 Not Found
 
 
LEXJ - Santander/Paraya, Spain
Distance from station: NNO 247km
Actualización: 22/05/2018 02:30
Despejado
Despejado
 Viento del OSO
Viento: OSO 7 km/h
Temperatura: 14°C
Rocío: 13°C
Humedad: 94%
Barómetro: 1014 hPa
Clouds: Despejado
Visibility: 6 km
2018/05/22 00:30 LEXJ 220030Z AUTO 24004KT 220V280 6000 NCD 14/13 Q1014
LEAS - Asturias/Aviles, Spain
Distance from station: NO 214km
Actualización: 22/05/2018 02:30
Mist, Parcialmente nuboso
Mist, Parcialmente nuboso
 Viento del SSO
Viento: SSO 2 km/h
Temperatura: 12°C
Rocío: 12°C
Humedad: 100%
Barómetro: 1014 hPa
Resumen: Mist
Clouds: Parcialmente nuboso
Visibility: 5 km
2018/05/22 00:30 LEAS 220030Z AUTO 21001KT 4600 BR NSC 12/12 Q1014
 
LECO - La Coruna/Alvedr, Spain
Distance from station: ONO 222km
Actualización: 22/05/2018 02:30
Cubierto
Cubierto
 Viento del varies
Viento: varies 4 km/h
Temperatura: 14°C
Rocío: 12°C
Humedad: 88%
Barómetro: 1013 hPa
Clouds: Cubierto
Visibility: 9 km
Cloud details: Cubierto 427 m
2018/05/22 00:30 LECO 220030Z AUTO VRB02KT 9000 OVC014/// 14/12 Q1013
LEVX - Vigo/Peinador, Spain
Distance from station: O 214km
Actualización: 01/01/1970 01:00
NOT Current
unable to load LEVX data RC=404 Not Found
unable to load LEVX data RC=404 Not Found